Time;durP1;ratioP1;P1;durP2;ratioP2;P2;SDS_P1;SDS_P2;PMS_P1;PMS_P2;Temp;Humidity;BMP_temperature;BMP_pressure;BME280_temperature;BME280_humidity;BME280_pressure;Samples;Min_cycle;Max_cycle;Signal;HPM_P1;HPM_P2
2020/12/18 00:01:40;;;;;;;9.35;1.73;;;;;;;11.07;84.36;100095.59;4912072;29;20910;-79
2020/12/18 00:04:05;;;;;;;10.50;2.10;;;;;;;10.99;85.26;100090.66;4897796;29;20048;-80
2020/12/18 00:06:34;;;;;;;23.48;2.22;;;;;;;10.99;85.36;100109.81;4916951;29;20067;-79
2020/12/18 00:08:59;;;;;;;12.80;1.90;;;;;;;10.89;86.05;100093.41;4924299;29;20020;-80
2020/12/18 00:11:27;;;;;;;11.02;1.25;;;;;;;10.91;85.88;100085.78;4923748;29;20028;-80
2020/12/18 00:13:56;;;;;;;17.05;1.55;;;;;;;10.88;86.87;100109.03;4915577;29;20475;-81
2020/12/18 00:16:26;;;;;;;19.23;2.63;;;;;;;10.82;86.76;100094.53;4899877;29;20083;-81
2020/12/18 00:18:54;;;;;;;9.18;2.28;;;;;;;10.84;86.98;100083.31;4901904;29;20052;-82
2020/12/18 00:21:23;;;;;;;13.63;1.73;;;;;;;10.76;87.15;100078.41;4900789;29;20036;-82
2020/12/18 00:24:13;;;;;;;15.40;2.15;;;;;;;10.67;87.69;100074.59;4911706;29;20032;-81
2020/12/18 00:26:46;;;;;;;7.65;1.63;;;;;;;10.72;87.43;100090.97;4918577;29;20047;-80
2020/12/18 00:29:23;;;;;;;6.93;1.80;;;;;;;10.58;87.67;100066.94;4911614;29;20494;-85
2020/12/18 00:53:11;;;;;;;;;;;;;;;;;;;;;
2020/12/18 01:01:02;;;;;;;;;;;;;;;;;;;;;
2020/12/18 01:03:25;;;;;;;22.95;2.00;;;;;;;10.28;89.91;100034.94;4869570;29;20518;-77
2020/12/18 01:05:50;;;;;;;11.27;1.60;;;;;;;10.40;90.27;100037.44;4904497;29;20080;-75
2020/12/18 01:08:16;;;;;;;8.90;1.30;;;;;;;10.35;89.56;100045.63;4905104;29;20036;-78
2020/12/18 01:10:44;;;;;;;7.68;1.38;;;;;;;10.45;89.88;100026.47;4906697;29;20044;-76
2020/12/18 01:13:09;;;;;;;16.67;2.25;;;;;;;10.39;89.82;100017.47;4909071;29;20064;-78
2020/12/18 01:15:35;;;;;;;12.40;2.55;;;;;;;10.48;90.32;100045.06;4897313;29;20055;-78
2020/12/18 01:18:00;;;;;;;13.20;2.10;;;;;;;10.47;90.30;100040.72;4899124;29;20028;-76
2020/12/18 01:20:25;;;;;;;15.48;2.97;;;;;;;10.50;89.69;100031.97;4899792;29;20414;-76
2020/12/18 01:22:53;;;;;;;13.55;2.47;;;;;;;10.50;90.48;100053.00;4900019;29;20050;-77
2020/12/18 01:25:18;;;;;;;13.20;3.33;;;;;;;10.48;90.15;100042.34;4911752;29;20128;-77
2020/12/18 01:27:45;;;;;;;13.93;2.40;;;;;;;10.51;89.99;100039.03;4899278;29;20117;-76
2020/12/18 01:30:13;;;;;;;14.43;1.92;;;;;;;10.54;90.86;100057.66;4894802;29;20028;-76
2020/12/18 01:32:39;;;;;;;12.52;2.28;;;;;;;10.55;90.53;100044.78;4889873;29;20390;-77
2020/12/18 01:35:04;;;;;;;12.07;2.70;;;;;;;10.57;90.39;100043.44;4916752;29;20028;-75
2020/12/18 01:37:30;;;;;;;23.50;2.33;;;;;;;10.50;90.48;100026.50;4898528;29;20029;-78
2020/12/18 01:40:02;;;;;;;17.27;2.45;;;;;;;10.62;90.57;100035.22;4902324;29;20039;-77
2020/12/18 01:42:36;;;;;;;28.70;3.33;;;;;;;10.54;89.92;100016.66;4900129;29;20043;-77
2020/12/18 01:45:25;;;;;;;18.85;2.75;;;;;;;10.67;90.08;100028.09;4904594;29;20100;-78
2020/12/18 01:51:45;;;;;;;6.07;1.90;;;;;;;10.52;90.20;100013.34;4884810;29;20555;-76
2020/12/18 01:54:24;;;;;;;8.00;2.50;;;;;;;10.65;89.96;100040.13;4889640;29;20051;-77
2020/12/18 01:57:21;;;;;;;;;;;;;;;;;;;;;
2020/12/18 01:59:50;;;;;;;20.70;2.72;;;;;;;10.62;90.47;100015.25;4890981;29;20032;-75
2020/12/18 02:02:18;;;;;;;14.55;1.60;;;;;;;10.60;90.53;100001.88;4878006;29;20487;-75
2020/12/18 02:04:59;;;;;;;18.55;3.50;;;;;;;10.54;90.98;100005.72;4868769;29;20039;-77
2020/12/18 02:07:40;;;;;;;;;;;;;;;;;;;;;
2020/12/18 02:10:24;;;;;;;21.65;2.17;;;;;;;10.62;90.72;99991.47;4876943;29;20040;-75
2020/12/18 02:12:53;;;;;;;22.02;2.95;;;;;;;10.51;90.30;99981.63;4896277;29;20024;-75
2020/12/18 02:15:20;;;;;;;16.45;2.28;;;;;;;10.53;91.00;99979.47;4871187;29;20064;-75
2020/12/18 02:17:48;;;;;;;13.35;2.63;;;;;;;10.65;90.54;99982.69;4876386;29;20511;-74
2020/12/18 02:20:14;;;;;;;18.48;2.35;;;;;;;10.70;90.97;99990.06;4874672;29;20487;-74
2020/12/18 02:22:40;;;;;;;17.10;2.28;;;;;;;10.67;90.45;99970.69;4899436;29;20029;-75
2020/12/18 02:25:08;;;;;;;11.27;2.22;;;;;;;10.72;90.81;99990.63;4876621;29;20040;-76
2020/12/18 02:27:37;;;;;;;21.17;2.25;;;;;;;10.75;90.48;99978.31;4887280;29;20546;-76
2020/12/18 02:30:15;;;;;;;;;;;;;;;;;;;;;
2020/12/18 02:32:41;;;;;;;14.23;3.08;;;;;;;10.68;90.94;99956.72;4896324;29;20033;-77
2020/12/18 02:35:34;;;;;;;15.13;2.53;;;;;;;10.85;90.20;99961.03;4898629;29;20039;-76
2020/12/18 02:38:11;;;;;;;23.67;3.60;;;;;;;10.61;90.55;99935.13;4889502;29;20028;-75
2020/12/18 02:40:36;;;;;;;20.02;3.17;;;;;;;10.69;90.12;99930.19;4877379;29;20032;-73
2020/12/18 02:43:04;;;;;;;12.18;1.70;;;;;;;10.71;90.58;99944.41;4893698;29;20084;-74
2020/12/18 02:45:30;;;;;;;18.65;2.97;;;;;;;10.70;90.77;99915.41;4892327;29;20090;-73
2020/12/18 02:48:00;;;;;;;28.95;2.88;;;;;;;10.72;90.18;99916.78;4878464;29;20032;-73
2020/12/18 02:50:25;;;;;;;13.00;2.13;;;;;;;10.69;90.48;99917.34;4878420;29;20032;-75
2020/12/18 02:52:51;;;;;;;21.60;3.25;;;;;;;10.77;90.25;99916.75;4896975;29;20051;-75
2020/12/18 02:55:19;;;;;;;14.02;2.60;;;;;;;10.82;90.47;99914.00;4898604;29;20032;-74
2020/12/18 02:58:07;;;;;;;21.77;2.38;;;;;;;10.81;90.42;99878.75;4911045;29;20052;-74
2020/12/18 03:00:46;;;;;;;37.35;3.28;;;;;;;10.79;90.28;99903.63;4913431;29;20046;-74
2020/12/18 03:03:14;;;;;;;10.68;2.10;;;;;;;10.83;91.02;99890.19;4920934;29;20489;-74
2020/12/18 03:05:46;;;;;;;17.08;2.63;;;;;;;10.79;90.43;99880.91;4895279;29;21322;-73
2020/12/18 03:08:16;;;;;;;24.75;3.33;;;;;;;10.83;90.37;99887.47;4879494;29;20387;-73
2020/12/18 03:10:42;;;;;;;17.98;2.40;;;;;;;10.84;90.42;99900.06;4913184;29;20040;-73
2020/12/18 03:13:10;;;;;;;15.77;2.08;;;;;;;10.82;90.27;99913.19;4893630;29;20044;-72
2020/12/18 03:15:35;;;;;;;17.65;2.60;;;;;;;10.82;90.53;99892.13;4912142;29;20545;-73
2020/12/18 03:18:01;;;;;;;24.70;2.63;;;;;;;10.85;90.28;99906.34;4914615;29;20032;-73
2020/12/18 03:20:27;;;;;;;16.40;2.65;;;;;;;10.83;90.18;99904.72;4912646;29;20036;-74
2020/12/18 03:22:53;;;;;;;12.25;2.88;;;;;;;10.79;90.72;99889.97;4913755;29;20016;-75
2020/12/18 03:25:18;;;;;;;14.75;2.33;;;;;;;10.81;90.86;99900.63;4896600;29;20359;-75
2020/12/18 03:27:44;;;;;;;8.35;1.55;;;;;;;10.73;91.01;99898.44;4909669;29;20087;-75
2020/12/18 03:30:10;;;;;;;11.50;2.10;;;;;;;10.77;90.67;99894.88;4898573;29;20574;-74
2020/12/18 03:32:35;;;;;;;20.23;2.22;;;;;;;10.81;90.80;99904.16;4893224;29;20728;-74
2020/12/18 03:35:05;;;;;;;10.63;1.40;;;;;;;10.79;90.46;99919.22;4917094;29;20029;-75
2020/12/18 03:37:31;;;;;;;24.52;2.63;;;;;;;10.76;90.81;99903.34;4894817;29;20380;-74
2020/12/18 03:39:59;;;;;;;19.63;1.90;;;;;;;10.86;90.82;99907.97;4912834;29;20035;-75
2020/12/18 03:42:24;;;;;;;14.20;2.10;;;;;;;10.80;90.70;99905.25;4896594;29;20056;-75
2020/12/18 03:45:10;;;;;;;16.80;2.35;;;;;;;10.82;90.60;99921.41;4913238;29;20123;-75
2020/12/18 03:47:36;;;;;;;15.02;1.77;;;;;;;10.82;91.13;99902.25;4902816;29;20036;-74
2020/12/18 03:50:07;;;;;;;10.60;1.48;;;;;;;10.86;90.35;99919.72;4888864;29;20560;-75
2020/12/18 03:52:35;;;;;;;14.90;2.28;;;;;;;10.93;90.47;99941.31;4910674;29;21292;-74
2020/12/18 03:55:00;;;;;;;15.30;1.95;;;;;;;10.83;90.55;99910.19;4891363;29;20131;-76
2020/12/18 03:57:26;;;;;;;10.40;2.08;;;;;;;10.94;90.75;99916.41;4917008;28;20134;-76
2020/12/18 03:59:52;;;;;;;16.15;1.33;;;;;;;10.91;90.24;99922.44;4898144;29;20043;-77
2020/12/18 04:02:17;;;;;;;11.07;2.17;;;;;;;10.94;90.28;99932.03;4885582;29;20039;-78
2020/12/18 04:04:43;;;;;;;14.50;2.13;;;;;;;10.85;90.81;99907.16;4914048;29;20099;-76
2020/12/18 04:07:14;;;;;;;14.70;1.95;;;;;;;10.91;90.79;99908.78;4907981;29;20028;-75
2020/12/18 04:09:41;;;;;;;9.77;2.15;;;;;;;10.92;91.00;99917.78;4908589;29;20020;-77
2020/12/18 04:12:13;;;;;;;8.85;1.33;;;;;;;11.02;90.59;99916.94;4915674;29;20032;-77
2020/12/18 04:14:38;;;;;;;8.65;1.52;;;;;;;10.99;90.31;99915.56;4902828;29;20020;-77
2020/12/18 04:17:05;;;;;;;12.23;2.08;;;;;;;10.98;90.72;99914.75;4904981;29;20439;-76
2020/12/18 04:19:30;;;;;;;3.90;1.50;;;;;;;11.00;90.13;99907.06;4910108;29;20036;-75
2020/12/18 04:21:56;;;;;;;11.07;1.45;;;;;;;11.03;90.33;99930.31;4925262;29;20076;-76
2020/12/18 04:24:22;;;;;;;7.57;1.60;;;;;;;11.05;90.36;99927.31;4913959;29;20038;-74
2020/12/18 04:26:48;;;;;;;12.02;1.85;;;;;;;11.03;90.43;99924.06;4898089;29;20051;-75
2020/12/18 04:29:14;;;;;;;9.18;1.15;;;;;;;11.06;90.66;99918.00;4907801;29;20131;-74
2020/12/18 04:31:39;;;;;;;13.55;2.45;;;;;;;11.03;90.65;99916.66;4915733;29;20064;-74
2020/12/18 04:34:05;;;;;;;6.70;0.93;;;;;;;11.02;90.25;99911.47;4897681;29;20032;-75
2020/12/18 04:36:31;;;;;;;4.07;0.90;;;;;;;11.06;90.89;99904.34;4877137;29;20041;-76
2020/12/18 04:38:59;;;;;;;7.47;1.15;;;;;;;11.06;90.39;99885.19;4909960;29;20104;-75
2020/12/18 04:41:31;;;;;;;2.15;0.73;;;;;;;11.00;90.60;99900.81;4881797;29;20051;-77
2020/12/18 04:43:59;;;;;;;3.33;1.05;;;;;;;11.05;90.51;99872.59;4901066;29;20039;-76
2020/12/18 04:46:28;;;;;;;4.85;0.80;;;;;;;11.04;90.38;99871.78;4894894;29;20036;-77
2020/12/18 04:48:54;;;;;;;1.33;0.32;;;;;;;11.10;90.66;99878.03;4908826;29;20223;-76
2020/12/18 04:51:22;;;;;;;2.83;0.68;;;;;;;11.02;90.45;99867.69;4912383;29;20466;-76
2020/12/18 04:53:51;;;;;;;5.80;0.55;;;;;;;11.03;90.66;99918.56;4886310;29;20033;-75
2020/12/18 04:56:25;;;;;;;7.65;1.60;;;;;;;10.99;90.53;99861.69;4900499;29;20089;-75
2020/12/18 04:58:56;;;;;;;5.15;0.60;;;;;;;10.99;90.43;99940.19;4909265;29;20024;-74
2020/12/18 05:01:26;;;;;;;1.95;0.38;;;;;;;11.02;90.64;99863.03;4923839;29;20052;-76
2020/12/18 05:03:54;;;;;;;5.75;0.77;;;;;;;10.99;90.70;99858.94;4927336;29;20031;-75
2020/12/18 05:06:20;;;;;;;1.75;0.70;;;;;;;11.03;91.20;99864.66;4890590;29;20423;-75
2020/12/18 05:08:46;;;;;;;3.83;0.85;;;;;;;10.95;90.68;99854.31;4910862;29;20115;-76
2020/12/18 05:11:27;;;;;;;4.20;1.08;;;;;;;10.98;90.81;99861.94;4908049;29;20059;-75
2020/12/18 05:13:58;;;;;;;3.50;0.45;;;;;;;10.96;90.90;99870.44;4888491;29;20471;-75
2020/12/18 05:16:24;;;;;;;9.07;0.70;;;;;;;10.91;90.90;99856.81;4906234;29;20055;-75
2020/12/18 05:18:51;;;;;;;10.07;0.93;;;;;;;10.91;91.15;99878.69;4907991;29;20099;-76
2020/12/18 05:21:27;;;;;;;2.53;0.47;;;;;;;10.86;91.22;99853.28;4908581;29;20508;-75
2020/12/18 05:23:52;;;;;;;3.42;0.93;;;;;;;10.94;91.27;99883.59;4892327;29;20432;-75
2020/12/18 05:26:18;;;;;;;1.65;0.55;;;;;;;10.85;90.88;99857.94;4902849;29;20044;-75
2020/12/18 05:28:47;;;;;;;8.77;0.85;;;;;;;10.80;91.06;99877.91;4903919;29;20084;-76
2020/12/18 05:31:18;;;;;;;4.15;0.75;;;;;;;10.88;91.27;99883.88;4892563;29;20028;-75
2020/12/18 05:33:50;;;;;;;7.28;0.57;;;;;;;10.89;91.43;99874.59;4910488;29;20020;-75
2020/12/18 05:36:25;;;;;;;1.08;0.40;;;;;;;10.97;91.04;99882.22;4892955;29;20067;-75
2020/12/18 05:38:50;;;;;;;1.17;0.30;;;;;;;10.95;90.99;99867.97;4906973;29;20107;-74
2020/12/18 05:41:21;;;;;;;5.72;0.60;;;;;;;10.97;90.98;99866.59;4910255;29;20135;-75
2020/12/18 05:43:54;;;;;;;1.85;0.63;;;;;;;11.00;91.05;99843.34;4904191;29;20028;-73
2020/12/18 05:46:29;;;;;;;1.00;0.30;;;;;;;10.98;91.25;99862.78;4920507;29;20128;-76
2020/12/18 05:49:09;;;;;;;2.38;0.47;;;;;;;10.99;90.89;99885.47;4895369;29;20028;-77
2020/12/18 05:51:43;;;;;;;1.98;0.60;;;;;;;10.99;91.30;99886.31;4906519;29;20048;-76
2020/12/18 05:54:19;;;;;;;1.20;0.45;;;;;;;10.98;91.00;99889.31;4912290;29;20168;-76
2020/12/18 05:56:52;;;;;;;2.15;0.63;;;;;;;10.96;91.09;99867.69;4906345;29;20051;-76
2020/12/18 05:59:18;;;;;;;4.25;0.95;;;;;;;11.02;91.04;99876.69;4908534;29;20028;-76
2020/12/18 06:01:49;;;;;;;2.30;0.43;;;;;;;11.03;91.25;99880.28;4881030;29;20040;-74
2020/12/18 06:04:20;;;;;;;1.25;0.43;;;;;;;10.99;91.06;99869.91;4905267;29;20043;-75
2020/12/18 06:06:54;;;;;;;3.85;0.77;;;;;;;11.05;91.25;99867.91;4917615;29;20463;-73
2020/12/18 06:09:28;;;;;;;3.90;0.52;;;;;;;11.05;90.75;99878.88;4909999;29;20024;-74
2020/12/18 06:11:54;;;;;;;3.60;0.68;;;;;;;10.97;90.72;99852.13;4910358;29;20063;-74
2020/12/18 06:14:23;;;;;;;1.95;0.50;;;;;;;10.97;91.27;99854.84;4895197;29;20479;-74
2020/12/18 06:16:51;;;;;;;4.15;0.63;;;;;;;10.99;91.24;99858.13;4901234;29;20036;-76
2020/12/18 06:19:18;;;;;;;9.57;0.85;;;;;;;11.08;90.89;99864.66;4910043;29;20032;-75
2020/12/18 06:21:50;;;;;;;4.75;0.75;;;;;;;11.13;91.15;99874.75;4900332;29;20032;-76
2020/12/18 06:24:16;;;;;;;2.35;0.70;;;;;;;11.11;90.74;99872.28;4915162;29;20122;-77
2020/12/18 06:26:42;;;;;;;2.03;0.60;;;;;;;11.06;90.61;99857.81;4902577;29;20526;-77
2020/12/18 06:29:08;;;;;;;0.90;0.45;;;;;;;11.03;90.87;99858.38;4894416;29;20091;-74
2020/12/18 06:31:37;;;;;;;2.92;0.55;;;;;;;11.12;90.58;99849.28;4882503;29;20463;-73
2020/12/18 06:34:13;;;;;;;;;;;;;;;;;;;;;
2020/12/18 06:36:50;;;;;;;7.82;0.88;;;;;;;11.11;91.15;99844.91;4914283;29;20464;-74
2020/12/18 06:39:46;;;;;;;9.20;1.17;;;;;;;11.03;90.32;99831.84;4912749;29;20095;-74
2020/12/18 06:42:18;;;;;;;5.15;0.73;;;;;;;11.08;90.53;99833.72;4906026;29;20039;-75
2020/12/18 06:44:53;;;;;;;7.80;1.73;;;;;;;11.07;90.93;99818.38;4912536;29;20024;-76
2020/12/18 06:47:24;;;;;;;4.35;0.70;;;;;;;11.10;90.78;99823.31;4914192;29;20036;-77
2020/12/18 06:49:56;;;;;;;5.65;0.77;;;;;;;11.07;90.48;99815.66;4895530;29;20027;-75
2020/12/18 06:53:06;;;;;;;3.42;0.75;;;;;;;11.06;90.52;99830.44;4909390;29;20028;-75
2020/12/18 06:55:41;;;;;;;4.50;0.75;;;;;;;11.02;90.60;99823.91;4913069;29;20036;-72
2020/12/18 06:58:08;;;;;;;6.20;1.80;;;;;;;11.05;90.18;99807.72;4894758;29;20507;-73
2020/12/18 07:00:42;;;;;;;8.18;0.82;;;;;;;11.05;90.56;99826.88;4886733;29;20076;-72
2020/12/18 07:03:08;;;;;;;1.75;0.47;;;;;;;10.96;90.83;99826.66;4893257;29;20724;-74
2020/12/18 07:05:58;;;;;;;1.42;0.60;;;;;;;10.96;90.76;99817.66;4912895;29;20036;-73
2020/12/18 07:08:24;;;;;;;7.68;1.25;;;;;;;10.95;91.31;99836.00;4891966;29;20087;-73
2020/12/18 07:10:50;;;;;;;12.15;1.52;;;;;;;10.86;91.26;99821.25;4885833;29;20115;-73
2020/12/18 07:13:18;;;;;;;10.77;1.20;;;;;;;10.92;91.37;99847.50;4911556;29;20107;-74
2020/12/18 07:15:44;;;;;;;8.93;1.08;;;;;;;10.93;91.07;99834.63;4902846;29;20058;-74
2020/12/18 07:18:15;;;;;;;6.65;1.35;;;;;;;10.89;91.22;99837.09;4901983;29;20070;-74
2020/12/18 07:20:51;;;;;;;5.88;1.45;;;;;;;11.02;91.56;99845.78;4907961;29;20031;-76
2020/12/18 07:23:23;;;;;;;12.32;1.63;;;;;;;10.95;91.13;99837.88;4899846;29;20442;-75
2020/12/18 07:25:50;;;;;;;12.20;1.33;;;;;;;10.99;91.24;99866.31;4902301;29;20130;-73
2020/12/18 07:28:17;;;;;;;12.43;1.73;;;;;;;10.92;90.89;99852.13;4899424;29;20151;-75
2020/12/18 07:30:47;;;;;;;9.73;1.10;;;;;;;10.92;91.41;99857.59;4892877;29;20039;-75
2020/12/18 07:33:14;;;;;;;11.95;2.10;;;;;;;10.94;91.48;99883.59;4871901;29;20032;-74
2020/12/18 07:35:42;;;;;;;16.00;2.00;;;;;;;10.95;91.59;99862.50;4911050;29;20352;-73
2020/12/18 07:38:17;;;;;;;9.80;1.15;;;;;;;10.97;91.38;99850.19;4908856;29;20098;-74
2020/12/18 07:40:44;;;;;;;6.65;1.17;;;;;;;10.94;91.27;99844.47;4905996;29;20551;-73
2020/12/18 07:43:15;;;;;;;8.55;1.30;;;;;;;10.96;91.61;99848.56;4880272;29;20051;-74
2020/12/18 07:45:46;;;;;;;13.88;1.67;;;;;;;10.98;91.30;99835.41;4912685;29;20130;-74
2020/12/18 07:48:20;;;;;;;7.05;1.10;;;;;;;10.97;91.34;99849.38;4908036;29;20119;-75
2020/12/18 07:50:59;;;;;;;10.20;0.95;;;;;;;11.02;91.41;99829.38;4908843;29;20466;-73
2020/12/18 07:53:45;;;;;;;10.90;1.23;;;;;;;11.03;91.27;99817.34;4909812;29;20024;-73
2020/12/18 07:56:25;;;;;;;11.07;1.13;;;;;;;10.98;91.43;99813.53;4911975;29;20048;-73
2020/12/18 07:58:57;;;;;;;5.57;1.05;;;;;;;10.98;91.48;99821.75;4907548;29;20044;-73
2020/12/18 08:01:30;;;;;;;7.65;1.10;;;;;;;10.92;91.20;99825.63;4880488;29;20963;-73
2020/12/18 08:04:04;;;;;;;2.50;0.70;;;;;;;11.05;91.31;99831.53;4909966;29;20099;-73
2020/12/18 08:06:37;;;;;;;14.98;1.85;;;;;;;11.03;91.59;99825.56;4903854;29;20066;-73
2020/12/18 08:09:02;;;;;;;11.57;1.15;;;;;;;11.01;91.02;99845.00;4909448;29;20042;-75
2020/12/18 08:11:30;;;;;;;10.00;1.30;;;;;;;11.07;91.16;99848.47;4890993;29;20119;-74
2020/12/18 08:13:56;;;;;;;8.77;1.23;;;;;;;10.97;91.32;99844.72;4907426;29;20020;-76
2020/12/18 08:16:24;;;;;;;13.23;1.17;;;;;;;11.05;90.90;99851.50;4901518;29;20036;-74
2020/12/18 08:19:09;;;;;;;8.38;1.27;;;;;;;11.05;91.63;99851.50;4892877;29;20036;-74
2020/12/18 08:21:39;;;;;;;3.95;0.80;;;;;;;11.11;91.11;99844.91;4908049;29;20036;-74
2020/12/18 08:24:30;;;;;;;3.53;0.90;;;;;;;11.09;91.29;99859.97;4909603;29;20050;-74
2020/12/18 08:27:01;;;;;;;4.13;0.98;;;;;;;11.06;91.04;99824.97;4903403;29;20067;-74
2020/12/18 08:29:31;;;;;;;5.32;0.80;;;;;;;11.08;90.78;99845.50;4883792;29;20020;-73
2020/12/18 08:31:58;;;;;;;6.85;0.93;;;;;;;11.14;90.66;99821.63;4899326;29;20090;-74
2020/12/18 08:34:26;;;;;;;5.35;0.95;;;;;;;11.20;90.75;99836.09;4905956;29;20473;-74
2020/12/18 08:36:52;;;;;;;7.93;1.27;;;;;;;11.19;90.58;99835.28;4913409;29;20040;-75
2020/12/18 08:39:17;;;;;;;5.72;1.02;;;;;;;11.19;91.00;99818.88;4914022;29;20116;-75
2020/12/18 08:41:53;;;;;;;7.03;1.30;;;;;;;11.18;90.57;99825.44;4929244;29;20063;-75
2020/12/18 08:44:21;;;;;;;8.23;0.93;;;;;;;11.22;90.66;99822.97;4918073;29;20019;-75
2020/12/18 08:46:49;;;;;;;9.13;1.52;;;;;;;11.25;90.76;99828.66;4928653;29;20031;-75
2020/12/18 08:49:16;;;;;;;8.45;1.15;;;;;;;11.28;90.76;99817.16;4928382;29;20031;-74
2020/12/18 08:51:41;;;;;;;14.05;1.33;;;;;;;11.29;90.83;99829.72;4898588;29;20020;-75
2020/12/18 08:54:27;;;;;;;3.33;0.95;;;;;;;11.33;89.93;99821.75;4912655;29;20084;-75
2020/12/18 08:57:29;;;;;;;9.48;1.70;;;;;;;11.35;89.87;99806.69;4894894;29;20051;-75
2020/12/18 09:00:08;;;;;;;5.40;1.48;;;;;;;11.33;90.21;99787.00;4905386;29;20083;-75
2020/12/18 09:02:35;;;;;;;9.40;2.10;;;;;;;11.30;90.30;99787.59;4911469;29;20035;-75
2020/12/18 09:05:11;;;;;;;7.30;2.17;;;;;;;11.25;89.96;99801.28;4907562;29;20123;-74
2020/12/18 09:07:41;;;;;;;5.03;0.80;;;;;;;11.25;90.34;99825.94;4886414;29;20024;-75
2020/12/18 09:10:07;;;;;;;14.68;1.48;;;;;;;11.20;90.70;99809.56;4903256;29;20564;-75
2020/12/18 09:12:40;;;;;;;12.52;1.50;;;;;;;11.26;90.25;99819.38;4879832;29;20075;-75
2020/12/18 09:15:25;;;;;;;7.00;1.20;;;;;;;11.28;90.02;99827.28;4886929;29;20569;-75
2020/12/18 09:18:06;;;;;;;13.68;1.67;;;;;;;11.24;90.00;99818.81;4895037;29;20035;-76
2020/12/18 09:20:40;;;;;;;4.95;2.45;;;;;;;11.21;90.26;99824.84;4888043;29;20039;-75
2020/12/18 09:23:07;;;;;;;4.90;1.10;;;;;;;11.23;90.18;99819.09;4912135;29;20039;-76
2020/12/18 09:25:41;;;;;;;8.10;1.20;;;;;;;11.17;90.20;99821.09;4888011;29;20370;-77
2020/12/18 09:28:25;;;;;;;5.53;0.70;;;;;;;11.19;90.66;99813.38;4920866;29;20494;-75
2020/12/18 09:30:52;;;;;;;10.18;1.50;;;;;;;11.18;90.51;99800.81;4914132;29;20040;-76
2020/12/18 09:33:31;;;;;;;4.80;1.15;;;;;;;11.24;90.69;99777.75;4917356;29;20040;-77
2020/12/18 09:36:12;;;;;;;6.07;0.93;;;;;;;11.23;89.85;99781.63;4911416;29;20035;-75
2020/12/18 09:38:40;;;;;;;2.75;0.80;;;;;;;11.20;90.49;99793.13;4905589;29;20657;-76
2020/12/18 09:41:10;;;;;;;3.75;1.20;;;;;;;11.22;90.37;99799.13;4903084;29;20694;-75
2020/12/18 09:43:36;;;;;;;5.50;1.05;;;;;;;11.16;90.47;99767.44;4916479;29;20292;-76
2020/12/18 09:46:02;;;;;;;1.23;0.55;;;;;;;11.16;90.88;99772.91;4878448;29;20081;-75
2020/12/18 09:48:28;;;;;;;3.38;0.82;;;;;;;11.22;90.73;99774.50;4888414;29;20063;-75
2020/12/18 09:50:58;;;;;;;2.75;0.80;;;;;;;11.22;90.88;99779.16;4862612;29;20028;-75
2020/12/18 09:53:27;;;;;;;3.78;0.80;;;;;;;11.23;90.48;99781.63;4904658;29;20036;-75
2020/12/18 09:55:53;;;;;;;2.88;0.75;;;;;;;11.20;90.33;99792.31;4885815;29;20067;-76
2020/12/18 09:58:20;;;;;;;1.77;0.70;;;;;;;11.21;90.49;99789.28;4894530;29;20037;-75
2020/12/18 10:00:46;;;;;;;6.90;0.95;;;;;;;11.21;90.12;99793.94;4895731;29;20048;-74
2020/12/18 10:03:13;;;;;;;7.43;0.98;;;;;;;11.23;90.16;99792.56;4904394;29;20023;-76
2020/12/18 10:05:39;;;;;;;2.95;0.93;;;;;;;11.16;90.37;99798.34;4906652;29;20039;-75
2020/12/18 10:08:04;;;;;;;7.68;0.98;;;;;;;11.17;90.13;99810.13;4912264;29;20036;-75
2020/12/18 10:10:31;;;;;;;3.17;0.73;;;;;;;11.22;90.18;99792.84;4916643;29;20501;-74
2020/12/18 10:12:58;;;;;;;2.97;0.90;;;;;;;11.17;90.61;99774.56;4894464;29;20075;-74
2020/12/18 10:15:24;;;;;;;2.40;1.10;;;;;;;11.20;90.58;99784.09;4892387;29;20136;-74
2020/12/18 10:17:50;;;;;;;7.43;1.15;;;;;;;11.16;90.85;99776.47;4904816;29;20024;-74
2020/12/18 10:20:16;;;;;;;4.38;0.70;;;;;;;11.16;90.63;99771.00;4930271;29;20070;-76
2020/12/18 10:22:44;;;;;;;2.83;0.60;;;;;;;11.17;90.53;99755.41;4904393;29;22161;-77
2020/12/18 10:25:09;;;;;;;2.85;1.20;;;;;;;11.22;90.23;99785.44;4895721;29;20087;-77
2020/12/18 10:27:36;;;;;;;5.60;0.90;;;;;;;11.18;90.73;99749.66;4892538;29;20119;-77
2020/12/18 10:30:04;;;;;;;3.60;0.80;;;;;;;11.18;90.85;99757.00;4904428;29;20047;-78
2020/12/18 10:32:30;;;;;;;6.22;0.50;;;;;;;11.11;90.63;99748.31;4912876;29;20021;-77
2020/12/18 10:34:57;;;;;;;2.45;0.45;;;;;;;11.18;90.86;99760.59;4892635;29;20030;-79
2020/12/18 10:37:22;;;;;;;1.70;0.65;;;;;;;11.24;90.75;99769.53;4905948;29;20467;-77
2020/12/18 10:39:52;;;;;;;2.83;0.55;;;;;;;11.22;90.63;99763.56;4899692;29;20036;-80
2020/12/18 10:42:18;;;;;;;2.42;0.52;;;;;;;11.23;90.67;99765.19;4892363;29;20050;-76
2020/12/18 10:44:44;;;;;;;1.73;0.35;;;;;;;11.24;90.79;99747.66;4897934;29;20194;-75
2020/12/18 10:47:10;;;;;;;7.07;0.85;;;;;;;11.28;90.94;99776.09;4916609;29;20032;-76
2020/12/18 10:49:35;;;;;;;3.17;0.40;;;;;;;11.31;90.51;99761.81;4898153;29;20028;-77
2020/12/18 10:52:01;;;;;;;9.20;0.82;;;;;;;11.33;90.44;99748.69;4900504;29;20036;-78
2020/12/18 10:54:28;;;;;;;11.52;1.25;;;;;;;11.32;90.77;99747.03;4914888;29;20054;-80
2020/12/18 10:56:55;;;;;;;3.53;0.73;;;;;;;11.30;90.70;99730.09;4905111;29;20653;-75
2020/12/18 10:59:22;;;;;;;5.47;1.52;;;;;;;11.33;90.56;99729.53;4903944;29;20046;-80
2020/12/18 11:01:54;;;;;;;7.35;1.25;;;;;;;11.42;90.42;99726.16;4897058;29;20024;-82
2020/12/18 11:04:29;;;;;;;5.95;0.90;;;;;;;11.43;90.40;99719.56;4886763;29;20028;-76
2020/12/18 11:06:57;;;;;;;5.00;1.05;;;;;;;11.48;90.70;99719.53;4923572;29;20115;-76
2020/12/18 11:09:23;;;;;;;15.23;1.60;;;;;;;11.54;90.94;99734.81;4900973;29;20028;-77
2020/12/18 11:11:53;;;;;;;5.38;1.40;;;;;;;11.55;90.55;99739.19;4919237;29;20375;-74
2020/12/18 11:14:19;;;;;;;8.05;1.45;;;;;;;11.52;90.87;99702.22;4895704;29;20024;-75
2020/12/18 11:16:45;;;;;;;9.95;1.92;;;;;;;11.56;90.90;99712.59;4897994;29;20039;-76
2020/12/18 11:19:11;;;;;;;3.97;1.05;;;;;;;11.58;90.59;99727.66;4916215;29;20035;-74
2020/12/18 11:21:37;;;;;;;9.60;1.40;;;;;;;11.59;90.86;99715.56;4902184;29;20051;-77
2020/12/18 11:24:03;;;;;;;5.30;0.82;;;;;;;11.60;90.77;99719.94;4908687;29;20107;-76
2020/12/18 11:26:28;;;;;;;3.83;1.20;;;;;;;11.63;90.75;99711.16;4923192;29;20464;-76
2020/12/18 11:28:54;;;;;;;10.50;1.30;;;;;;;11.57;90.57;99719.72;4910104;29;20032;-74
2020/12/18 11:31:19;;;;;;;5.28;0.88;;;;;;;11.60;90.92;99706.25;4898718;29;20680;-75
2020/12/18 11:33:45;;;;;;;9.77;1.25;;;;;;;11.59;90.78;99701.88;4892962;29;20028;-76
2020/12/18 11:36:11;;;;;;;8.95;1.23;;;;;;;11.63;91.02;99711.16;4900826;29;20043;-75
2020/12/18 11:38:37;;;;;;;6.97;1.40;;;;;;;11.63;90.94;99713.88;4920849;29;20051;-76
2020/12/18 11:41:02;;;;;;;7.00;1.20;;;;;;;11.63;90.86;99702.94;4894752;29;20052;-75
2020/12/18 11:43:28;;;;;;;5.95;1.70;;;;;;;11.63;90.75;99702.94;4910688;29;20067;-76
2020/12/18 11:45:53;;;;;;;8.35;1.27;;;;;;;11.65;91.10;99695.25;4914284;29;20036;-74
2020/12/18 11:48:19;;;;;;;9.25;1.58;;;;;;;11.68;91.25;99689.19;4894176;29;20081;-75
2020/12/18 11:50:46;;;;;;;4.47;1.23;;;;;;;11.65;90.62;99689.78;4906963;29;20047;-76
2020/12/18 11:53:11;;;;;;;5.13;1.42;;;;;;;11.74;91.14;99675.41;4915857;29;20039;-74
2020/12/18 11:55:37;;;;;;;3.67;0.80;;;;;;;11.74;90.49;99694.59;4879385;29;20398;-76
2020/12/18 11:58:02;;;;;;;3.50;1.02;;;;;;;11.74;90.38;99686.38;4895187;29;20067;-78
2020/12/18 12:00:28;;;;;;;1.70;1.10;;;;;;;11.72;90.52;99694.09;4900045;29;20408;-77
2020/12/18 12:02:54;;;;;;;6.88;1.45;;;;;;;11.73;90.93;99673.81;4894590;29;20028;-77
2020/12/18 12:05:22;;;;;;;4.53;1.25;;;;;;;11.74;90.40;99686.38;4905115;29;20119;-75
2020/12/18 12:07:48;;;;;;;6.20;1.00;;;;;;;11.78;90.31;99662.78;4879087;29;20033;-77
2020/12/18 12:10:15;;;;;;;4.82;1.20;;;;;;;11.79;90.51;99669.91;4890393;29;20035;-77
2020/12/18 12:12:41;;;;;;;14.18;1.50;;;;;;;11.73;90.56;99662.84;4898701;29;20043;-76
2020/12/18 12:15:07;;;;;;;7.43;1.20;;;;;;;11.77;90.85;99677.56;4891640;29;20896;-77
2020/12/18 12:17:33;;;;;;;14.88;1.30;;;;;;;11.78;90.72;99673.75;4894621;29;20391;-76
2020/12/18 12:19:59;;;;;;;4.80;1.30;;;;;;;11.81;90.70;99687.69;4910587;29;20032;-77